Paradise, Missouri
Current Conditions -  °F | °C
As of 6:53 AM on Friday 19 Dec 2014 (Local Time) from KMCI Reporting Station
Haze Haze  
Wind Chill: 30°   Ceiling: 500
Heat Index: 30°   Visibility: 5mi
Dew Point: 29°   Wind: 0mph
Humidity: 96%   Direction: NA
Pressure: 30.24"   Gusts: NA
Location:  39.3944°N, 94.5382°W
Report Text: KMCI 191253Z 00000KT 5SM BR OVC005 M01/M02 A3024 RMK AO2 SLP248 T10111017 $
Loading
Personal Weather Stations






























Interactive Weather Map New forecast layout! Learn more

10-Day Weather Forecast

Advertisements
Track Severe Weather on mobile